Time;durP1;ratioP1;P1;durP2;ratioP2;P2;SDS_P1;SDS_P2;PMS_P1;PMS_P2;Temp;Humidity;BMP_temperature;BMP_pressure;BME280_temperature;BME280_humidity;BME280_pressure;Samples;Min_cycle;Max_cycle;Signal;HPM_P1;HPM_P2
2022/04/08 00:02:17;;;;;;;0.00;0.00;;;17.40;77.00;;;;;;5085727;28;20023;-80
2022/04/08 00:04:44;;;;;;;0.00;0.00;;;17.30;77.50;;;;;;5087862;28;20101;-79
2022/04/08 00:07:10;;;;;;;0.00;0.00;;;17.30;78.40;;;;;;5100033;28;20016;-79
2022/04/08 00:09:36;;;;;;;0.00;0.00;;;17.20;82.10;;;;;;5076000;28;20035;-79
2022/04/08 00:12:03;;;;;;;0.00;0.00;;;17.20;82.00;;;;;;5091803;28;20035;-79
2022/04/08 00:14:29;;;;;;;0.00;0.00;;;17.20;82.60;;;;;;5083622;28;20032;-79
2022/04/08 00:16:57;;;;;;;0.00;0.00;;;17.00;86.30;;;;;;5084031;28;20043;-80
2022/04/08 00:19:24;;;;;;;0.00;0.00;;;17.00;88.70;;;;;;5113718;28;20008;-80
2022/04/08 00:21:50;;;;;;;0.00;0.00;;;17.10;90.60;;;;;;5107019;28;20031;-79
2022/04/08 00:24:20;;;;;;;0.00;0.00;;;17.00;92.30;;;;;;5095060;28;20020;-80
2022/04/08 00:26:51;;;;;;;0.00;0.00;;;16.90;92.10;;;;;;5108792;28;20153;-80
2022/04/08 00:29:18;;;;;;;0.45;0.45;;;17.00;93.50;;;;;;5106086;28;20038;-79
2022/04/08 00:32:07;;;;;;;1.30;1.20;;;16.50;94.20;;;;;;5104559;28;20024;-79
2022/04/08 00:35:00;;;;;;;0.00;0.00;;;16.40;95.60;;;;;;5088694;28;20024;-80
2022/04/08 00:37:32;;;;;;;5.38;5.07;;;16.30;98.30;;;;;;5087769;28;20474;-80
2022/04/08 00:39:59;;;;;;;0.00;0.00;;;16.10;99.90;;;;;;5109065;28;20027;-80
2022/04/08 00:42:28;;;;;;;0.57;0.57;;;16.00;99.90;;;;;;5104176;28;20038;-80
2022/04/08 00:44:54;;;;;;;2.20;2.05;;;15.90;99.90;;;;;;5079748;28;20039;-79
2022/04/08 00:47:20;;;;;;;2.05;1.95;;;16.20;99.90;;;;;;5110186;28;20061;-80
2022/04/08 00:49:46;;;;;;;0.20;0.20;;;16.30;99.90;;;;;;5097732;28;20042;-80
2022/04/08 00:52:14;;;;;;;0.00;0.00;;;16.40;99.90;;;;;;5126140;28;20023;-80
2022/04/08 00:54:43;;;;;;;0.00;0.00;;;16.50;99.90;;;;;;5100957;28;20026;-79
2022/04/08 00:57:09;;;;;;;0.28;0.28;;;16.50;99.90;;;;;;5109508;28;20042;-80
2022/04/08 00:59:35;;;;;;;2.10;2.00;;;16.30;99.90;;;;;;5114166;28;20020;-80
2022/04/08 01:02:01;;;;;;;0.00;0.00;;;16.50;99.90;;;;;;5112082;28;20016;-80
2022/04/08 01:04:28;;;;;;;0.00;0.00;;;16.70;99.90;;;;;;5118830;28;20047;-79
2022/04/08 01:06:57;;;;;;;0.00;0.00;;;16.50;99.90;;;;;;5107715;28;20374;-79
2022/04/08 01:09:25;;;;;;;0.10;0.10;;;16.60;99.90;;;;;;5118664;28;20028;-80
2022/04/08 01:11:51;;;;;;;0.00;0.00;;;16.60;99.90;;;;;;5109648;28;20097;-80
2022/04/08 01:14:17;;;;;;;5.28;1.55;;;16.80;99.90;;;;;;5093561;28;20027;-81
2022/04/08 01:16:45;;;;;;;0.00;0.00;;;17.00;99.90;;;;;;5105606;28;20015;-80
2022/04/08 01:19:12;;;;;;;0.00;0.00;;;16.90;99.90;;;;;;5104909;28;20075;-81
2022/04/08 01:21:39;;;;;;;0.00;0.00;;;16.90;99.90;;;;;;5095312;28;20445;-79
2022/04/08 01:24:11;;;;;;;0.00;0.00;;;17.10;99.90;;;;;;5100904;28;20028;-80
2022/04/08 01:26:54;;;;;;;;;;;;;;;;;;;;;
2022/04/08 01:29:20;;;;;;;0.00;0.00;;;17.20;99.90;;;;;;5103840;28;20033;-82
2022/04/08 01:31:46;;;;;;;0.88;0.85;;;17.10;99.90;;;;;;5085023;28;20024;-81
2022/04/08 01:34:14;;;;;;;0.00;0.00;;;17.30;99.90;;;;;;5093597;28;20071;-81
2022/04/08 01:36:40;;;;;;;0.00;0.00;;;17.20;99.90;;;;;;5082738;28;20020;-80
2022/04/08 01:39:07;;;;;;;0.00;0.00;;;17.40;99.90;;;;;;5083483;28;20027;-81
2022/04/08 01:41:33;;;;;;;0.00;0.00;;;17.70;99.90;;;;;;5085851;28;20024;-80
2022/04/08 01:44:00;;;;;;;0.00;0.00;;;17.90;99.90;;;;;;5085590;28;20401;-80
2022/04/08 01:46:26;;;;;;;0.47;0.47;;;18.00;99.90;;;;;;5104064;28;20035;-81
2022/04/08 01:48:53;;;;;;;0.00;0.00;;;18.00;99.90;;;;;;5105952;28;20032;-81
2022/04/08 01:51:19;;;;;;;40.58;38.50;;;17.70;99.90;;;;;;5080768;28;20050;-81
2022/04/08 01:53:46;;;;;;;0.00;0.00;;;17.80;99.90;;;;;;5105114;28;20070;-81
2022/04/08 01:56:41;;;;;;;0.00;0.00;;;18.10;99.90;;;;;;5084206;28;20378;-81
2022/04/08 01:59:10;;;;;;;0.00;0.00;;;18.50;99.90;;;;;;5080004;28;20401;-80
2022/04/08 02:01:36;;;;;;;0.00;0.00;;;18.80;97.00;;;;;;5103328;28;20027;-80
2022/04/08 02:04:04;;;;;;;0.00;0.00;;;18.90;96.20;;;;;;5101905;28;20119;-80
2022/04/08 02:06:31;;;;;;;0.00;0.00;;;19.00;96.20;;;;;;5076812;28;20432;-81
2022/04/08 02:08:57;;;;;;;0.00;0.00;;;19.20;97.40;;;;;;5083235;28;20040;-80
2022/04/08 02:11:24;;;;;;;0.43;0.43;;;19.20;95.70;;;;;;5089247;28;20028;-80
2022/04/08 02:13:53;;;;;;;0.20;0.20;;;19.00;88.60;;;;;;5098756;28;20473;-80
2022/04/08 02:16:20;;;;;;;1.13;1.08;;;18.40;88.10;;;;;;5100044;28;20059;-81
2022/04/08 02:18:54;;;;;;;7.63;5.32;;;18.70;87.40;;;;;;5078407;28;20032;-81
2022/04/08 02:21:21;;;;;;;0.00;0.00;;;18.40;86.30;;;;;;5101940;28;20125;-80
2022/04/08 02:24:06;;;;;;;0.10;0.10;;;18.50;88.40;;;;;;5082785;28;20118;-80
2022/04/08 02:26:32;;;;;;;8.80;2.05;;;18.90;86.20;;;;;;5094018;28;20474;-80
2022/04/08 02:28:59;;;;;;;0.55;0.55;;;18.90;80.50;;;;;;5095022;28;20103;-81
2022/04/08 02:31:25;;;;;;;0.00;0.00;;;18.90;82.70;;;;;;5080251;28;20028;-80
2022/04/08 02:33:51;;;;;;;0.00;0.00;;;18.90;83.70;;;;;;5077619;28;20032;-81
2022/04/08 02:36:17;;;;;;;0.00;0.00;;;19.10;82.20;;;;;;5079718;28;20028;-81
2022/04/08 02:38:53;;;;;;;0.00;0.00;;;19.80;80.80;;;;;;5101501;28;20036;-81
2022/04/08 02:41:21;;;;;;;0.00;0.00;;;20.20;76.30;;;;;;5095289;28;20082;-81
2022/04/08 02:43:48;;;;;;;9.55;3.63;;;20.20;76.40;;;;;;5095281;28;20028;-81
2022/04/08 02:46:14;;;;;;;0.00;0.00;;;20.00;72.10;;;;;;5082379;28;20023;-81
2022/04/08 02:48:40;;;;;;;0.28;0.10;;;19.50;73.80;;;;;;5080246;28;20165;-80
2022/04/08 02:51:06;;;;;;;0.00;0.00;;;19.90;75.30;;;;;;5073205;28;20393;-82
2022/04/08 02:53:33;;;;;;;4.20;1.30;;;19.70;74.80;;;;;;5094381;28;20055;-80
2022/04/08 02:56:01;;;;;;;0.00;0.00;;;19.50;74.40;;;;;;5093753;28;20043;-81
2022/04/08 02:58:30;;;;;;;0.17;0.17;;;19.50;77.00;;;;;;5097635;28;20389;-80
2022/04/08 03:00:59;;;;;;;37.17;4.00;;;19.10;78.40;;;;;;5097580;28;20028;-81
2022/04/08 03:03:27;;;;;;;6.22;5.82;;;19.50;76.10;;;;;;5083499;28;20040;-81
2022/04/08 03:05:53;;;;;;;0.70;0.70;;;19.80;74.40;;;;;;5075851;28;20041;-80
2022/04/08 03:08:20;;;;;;;0.00;0.00;;;20.20;74.70;;;;;;5073189;28;20501;-81
2022/04/08 03:10:46;;;;;;;2.28;1.23;;;20.30;72.60;;;;;;5080633;28;20032;-81
2022/04/08 03:13:13;;;;;;;5.00;1.52;;;19.70;73.40;;;;;;5074270;28;20513;-81
2022/04/08 03:15:39;;;;;;;1.27;0.63;;;19.20;74.90;;;;;;5081331;28;20032;-79
2022/04/08 03:18:07;;;;;;;20.85;5.25;;;19.10;75.40;;;;;;5090770;28;20024;-80
2022/04/08 03:20:33;;;;;;;1.73;1.63;;;18.80;76.80;;;;;;5066079;28;20024;-80
2022/04/08 03:22:59;;;;;;;17.45;4.10;;;18.90;77.20;;;;;;5071969;28;20448;-81
2022/04/08 03:25:26;;;;;;;0.68;0.68;;;18.80;76.80;;;;;;5066350;28;20481;-82
2022/04/08 03:27:52;;;;;;;0.00;0.00;;;18.80;75.60;;;;;;5071893;28;20036;-82
2022/04/08 03:30:18;;;;;;;2.55;1.10;;;18.70;77.10;;;;;;5054549;28;20028;-81
2022/04/08 03:32:44;;;;;;;3.53;1.88;;;18.30;77.80;;;;;;5076178;28;20498;-82
2022/04/08 03:35:10;;;;;;;5.05;1.25;;;18.90;76.70;;;;;;5076497;28;20037;-81
2022/04/08 03:37:37;;;;;;;2.97;1.35;;;19.40;70.30;;;;;;5077710;28;20024;-82
2022/04/08 03:40:03;;;;;;;0.70;0.45;;;19.30;70.80;;;;;;5075838;28;20028;-81
2022/04/08 03:42:29;;;;;;;0.28;0.28;;;19.00;71.40;;;;;;5078946;28;20024;-83
2022/04/08 03:44:55;;;;;;;0.70;0.40;;;19.40;71.70;;;;;;5076748;28;20036;-80
2022/04/08 03:47:22;;;;;;;0.35;0.30;;;19.80;71.00;;;;;;5074403;28;20674;-81
2022/04/08 03:49:48;;;;;;;0.00;0.00;;;20.10;70.50;;;;;;5074736;28;20475;-80
2022/04/08 03:52:14;;;;;;;0.00;0.00;;;20.40;67.00;;;;;;5078095;28;20135;-80
2022/04/08 03:54:40;;;;;;;0.00;0.00;;;20.70;66.80;;;;;;5087197;28;20467;-79
2022/04/08 03:57:10;;;;;;;1.55;1.08;;;20.70;66.60;;;;;;5066946;28;20032;-80
2022/04/08 03:59:38;;;;;;;0.00;0.00;;;20.40;67.10;;;;;;5063495;28;20078;-78
2022/04/08 04:02:05;;;;;;;2.15;1.85;;;20.00;66.30;;;;;;5062490;28;20024;-80
2022/04/08 04:04:32;;;;;;;6.53;1.50;;;20.00;67.00;;;;;;5084077;28;20067;-81
2022/04/08 04:06:58;;;;;;;2.83;1.85;;;19.90;66.80;;;;;;5060851;28;20555;-81
2022/04/08 04:09:24;;;;;;;0.00;0.00;;;19.70;66.80;;;;;;5079402;28;20036;-80
2022/04/08 04:11:52;;;;;;;2.28;1.58;;;19.50;67.40;;;;;;5077059;28;20048;-80
2022/04/08 04:14:19;;;;;;;0.25;0.08;;;19.90;68.80;;;;;;5058972;28;20055;-80
2022/04/08 04:16:45;;;;;;;0.75;0.43;;;20.50;66.60;;;;;;5060165;28;20041;-80
2022/04/08 04:19:12;;;;;;;0.00;0.00;;;20.00;64.60;;;;;;5081921;28;20372;-81
2022/04/08 04:21:38;;;;;;;0.40;0.40;;;19.90;67.20;;;;;;5064259;28;20421;-80
2022/04/08 04:24:04;;;;;;;4.47;0.68;;;20.10;66.30;;;;;;5057406;28;20024;-81
2022/04/08 04:26:30;;;;;;;3.72;1.98;;;20.20;66.00;;;;;;5066680;28;20036;-81
2022/04/08 04:28:57;;;;;;;0.00;0.00;;;19.90;67.20;;;;;;5059868;28;20020;-80
2022/04/08 04:31:31;;;;;;;0.17;0.17;;;20.60;66.20;;;;;;5057271;28;20039;-80
2022/04/08 04:33:58;;;;;;;1.45;0.60;;;21.20;65.00;;;;;;5056616;28;20147;-81
2022/04/08 04:36:24;;;;;;;0.10;0.10;;;20.90;63.20;;;;;;5072968;28;20050;-81
2022/04/08 04:38:50;;;;;;;0.00;0.00;;;20.30;64.40;;;;;;5070406;28;20035;-81
2022/04/08 04:41:20;;;;;;;0.00;0.00;;;19.90;67.20;;;;;;5051742;28;20039;-83
2022/04/08 04:43:46;;;;;;;0.00;0.00;;;20.50;66.20;;;;;;5050188;28;20037;-81
2022/04/08 04:46:12;;;;;;;0.08;0.08;;;20.20;65.70;;;;;;5056540;28;20297;-79
2022/04/08 04:48:41;;;;;;;8.18;0.63;;;20.40;66.30;;;;;;5056786;28;20032;-80
2022/04/08 04:51:07;;;;;;;0.20;0.20;;;21.00;64.00;;;;;;5056504;28;20031;-79
2022/04/08 04:53:33;;;;;;;0.00;0.00;;;21.10;62.20;;;;;;5078160;28;20025;-80
2022/04/08 04:56:02;;;;;;;1.02;0.98;;;21.10;63.30;;;;;;5072715;28;20455;-80
2022/04/08 04:58:30;;;;;;;3.42;3.15;;;20.60;63.30;;;;;;5063258;28;20073;-80
2022/04/08 05:00:57;;;;;;;3.20;0.77;;;20.80;64.60;;;;;;5080732;28;20016;-79
2022/04/08 05:03:25;;;;;;;0.00;0.00;;;20.80;63.40;;;;;;5076887;28;20139;-81
2022/04/08 05:05:53;;;;;;;0.00;0.00;;;20.30;64.60;;;;;;5061976;28;20446;-80
2022/04/08 05:08:20;;;;;;;4.13;2.47;;;20.60;64.90;;;;;;5072907;28;20398;-81
2022/04/08 05:10:47;;;;;;;1.45;0.25;;;20.50;65.10;;;;;;5075048;28;20074;-81
2022/04/08 05:13:14;;;;;;;8.50;0.88;;;20.40;63.80;;;;;;5077523;28;20020;-82
2022/04/08 05:15:42;;;;;;;0.22;0.13;;;20.30;65.40;;;;;;5072690;28;20070;-81
2022/04/08 05:18:14;;;;;;;1.63;1.35;;;20.30;65.30;;;;;;5055839;28;20027;-81
2022/04/08 05:20:40;;;;;;;0.10;0.10;;;20.50;65.30;;;;;;5058285;28;20446;-81
2022/04/08 05:23:06;;;;;;;0.08;0.08;;;20.40;65.70;;;;;;5075496;28;20031;-81
2022/04/08 05:25:35;;;;;;;0.28;0.22;;;20.80;65.30;;;;;;5059138;28;20135;-81
2022/04/08 05:28:01;;;;;;;15.50;4.70;;;21.00;63.50;;;;;;5063415;28;20028;-81
2022/04/08 05:30:31;;;;;;;11.43;0.90;;;20.80;64.10;;;;;;5069664;28;20120;-80
2022/04/08 05:32:57;;;;;;;2.00;0.65;;;21.00;63.90;;;;;;5069647;28;20051;-81
2022/04/08 05:35:23;;;;;;;0.77;0.75;;;20.50;64.30;;;;;;5054500;28;20028;-80
2022/04/08 05:37:49;;;;;;;0.73;0.73;;;20.80;63.30;;;;;;5074950;28;20182;-81
2022/04/08 05:40:23;;;;;;;0.00;0.00;;;21.00;62.20;;;;;;5075200;28;20184;-81
2022/04/08 05:42:52;;;;;;;8.57;4.65;;;21.00;63.60;;;;;;5074925;28;20036;-80
2022/04/08 05:45:21;;;;;;;0.80;0.80;;;21.20;63.30;;;;;;5053870;28;20048;-81
2022/04/08 05:47:49;;;;;;;2.47;1.52;;;20.80;63.10;;;;;;5053902;28;20036;-82
2022/04/08 05:50:18;;;;;;;0.35;0.35;;;21.00;62.90;;;;;;5053727;28;20028;-82
2022/04/08 05:52:47;;;;;;;6.18;1.70;;;20.50;63.20;;;;;;5068112;28;20032;-81
2022/04/08 05:55:13;;;;;;;2.13;1.27;;;20.60;63.60;;;;;;5071158;28;20029;-81
2022/04/08 05:57:41;;;;;;;6.55;2.45;;;20.40;64.10;;;;;;5054365;28;20016;-81
2022/04/08 06:00:13;;;;;;;6.85;6.40;;;20.40;63.50;;;;;;5052187;28;20021;-81
2022/04/08 06:02:47;;;;;;;5.72;5.43;;;20.60;65.20;;;;;;5053105;28;20127;-82
2022/04/08 06:05:18;;;;;;;3.70;2.97;;;20.80;62.90;;;;;;5058068;28;20099;-80
2022/04/08 06:07:52;;;;;;;0.00;0.00;;;20.70;62.40;;;;;;5114531;28;20063;-80
2022/04/08 06:10:23;;;;;;;0.00;0.00;;;20.90;64.40;;;;;;5095300;28;20024;-81
2022/04/08 06:12:50;;;;;;;16.35;5.22;;;20.90;62.90;;;;;;5074427;28;20034;-82
2022/04/08 06:15:18;;;;;;;0.82;0.60;;;20.90;62.60;;;;;;5094396;28;20084;-81
2022/04/08 06:17:54;;;;;;;4.10;3.60;;;21.30;61.40;;;;;;5082092;28;20015;-81
2022/04/08 06:20:22;;;;;;;1.83;1.77;;;21.20;63.50;;;;;;5094804;28;20371;-81
2022/04/08 06:22:49;;;;;;;0.50;0.50;;;21.50;61.70;;;;;;5096087;28;20069;-81
2022/04/08 06:25:23;;;;;;;0.00;0.00;;;21.70;61.00;;;;;;5096030;28;20490;-81
2022/04/08 06:28:06;;;;;;;4.80;3.38;;;22.00;61.50;;;;;;5094995;28;20020;-80
2022/04/08 06:30:39;;;;;;;0.00;0.00;;;21.90;59.50;;;;;;5086714;28;20063;-81
2022/04/08 06:33:09;;;;;;;0.20;0.20;;;22.20;59.10;;;;;;5099418;28;20398;-82
2022/04/08 06:35:36;;;;;;;0.30;0.30;;;22.50;58.90;;;;;;5079097;28;20398;-80
2022/04/08 06:38:06;;;;;;;0.00;0.00;;;22.60;57.80;;;;;;5076400;28;20123;-81
2022/04/08 06:40:35;;;;;;;6.10;1.48;;;22.30;57.30;;;;;;5093011;28;20016;-81
2022/04/08 06:43:02;;;;;;;1.75;0.55;;;22.00;58.10;;;;;;5094935;28;20020;-80
2022/04/08 06:45:29;;;;;;;1.95;1.85;;;21.90;58.30;;;;;;5077031;28;20036;-81
2022/04/08 06:47:55;;;;;;;12.48;2.95;;;22.00;59.60;;;;;;5093583;28;20496;-82
2022/04/08 06:50:22;;;;;;;15.65;5.57;;;21.80;60.80;;;;;;5072866;28;20690;-82
2022/04/08 06:52:48;;;;;;;4.07;3.88;;;22.00;61.10;;;;;;5083037;28;20093;-81
2022/04/08 06:55:24;;;;;;;0.65;0.65;;;21.90;60.10;;;;;;5091783;28;20026;-81
2022/04/08 06:58:05;;;;;;;9.38;3.53;;;21.70;61.50;;;;;;5096727;28;20123;-82
2022/04/08 07:00:32;;;;;;;3.10;1.13;;;21.70;61.70;;;;;;5092786;28;20058;-82
2022/04/08 07:03:03;;;;;;;17.88;4.20;;;21.80;62.00;;;;;;5091392;28;20100;-81
2022/04/08 07:05:29;;;;;;;3.20;0.95;;;21.60;61.90;;;;;;5078279;28;20021;-81
2022/04/08 07:08:00;;;;;;;14.80;7.60;;;21.80;62.30;;;;;;5098604;28;20039;-78
2022/04/08 07:10:33;;;;;;;1.52;1.35;;;21.70;62.50;;;;;;5075477;28;20028;-81
2022/04/08 07:12:59;;;;;;;1.60;1.60;;;22.10;60.60;;;;;;5090653;28;20024;-81
2022/04/08 07:15:28;;;;;;;5.07;2.80;;;21.90;60.20;;;;;;5101110;28;20081;-79
2022/04/08 07:18:03;;;;;;;2.80;2.60;;;22.40;59.00;;;;;;5101698;28;20016;-79
2022/04/08 07:20:29;;;;;;;14.45;2.95;;;22.40;58.50;;;;;;5077405;28;20024;-81
2022/04/08 07:23:01;;;;;;;4.13;3.92;;;21.60;59.70;;;;;;5079871;28;20019;-80
2022/04/08 07:25:28;;;;;;;8.82;2.10;;;21.50;61.10;;;;;;5097149;28;20016;-81
2022/04/08 07:28:00;;;;;;;13.48;6.45;;;22.00;61.50;;;;;;5098259;28;20043;-80
2022/04/08 07:30:28;;;;;;;17.25;6.18;;;22.30;59.90;;;;;;5078158;28;20055;-80
2022/04/08 07:33:01;;;;;;;5.72;2.40;;;22.10;59.60;;;;;;5097598;28;20053;-82
2022/04/08 07:35:30;;;;;;;0.20;0.20;;;22.40;59.00;;;;;;5080780;28;20032;-81
2022/04/08 07:37:57;;;;;;;3.90;0.90;;;22.10;59.60;;;;;;5094406;28;20136;-80
2022/04/08 07:40:23;;;;;;;8.48;3.95;;;21.80;59.60;;;;;;5077661;28;20105;-80
2022/04/08 07:42:50;;;;;;;1.45;1.00;;;21.90;59.70;;;;;;5103746;28;20393;-81
2022/04/08 07:45:17;;;;;;;4.10;1.02;;;21.70;59.40;;;;;;5098181;28;20034;-80
2022/04/08 07:47:43;;;;;;;1.10;1.08;;;22.00;59.10;;;;;;5095200;28;20051;-79
2022/04/08 07:50:14;;;;;;;14.73;5.20;;;22.10;59.60;;;;;;5097324;28;20024;-82
2022/04/08 07:52:42;;;;;;;0.80;0.80;;;22.30;59.00;;;;;;5104079;28;20048;-80
2022/04/08 07:55:08;;;;;;;1.98;1.88;;;22.30;57.90;;;;;;5097645;28;20020;-81
2022/04/08 07:57:46;;;;;;;0.30;0.30;;;21.90;59.10;;;;;;5093128;28;20019;-80
2022/04/08 08:00:14;;;;;;;0.28;0.15;;;21.90;58.80;;;;;;5078909;28;20378;-81
2022/04/08 08:02:41;;;;;;;2.83;2.72;;;22.40;59.30;;;;;;5080391;28;20437;-79
2022/04/08 08:05:09;;;;;;;2.60;2.47;;;22.30;58.30;;;;;;5078734;28;20119;-79
2022/04/08 08:07:46;;;;;;;0.10;0.10;;;22.50;58.10;;;;;;5079751;28;20401;-81
2022/04/08 08:10:16;;;;;;;95.78;4.50;;;22.10;58.10;;;;;;5102819;28;20020;-79
2022/04/08 08:12:42;;;;;;;5.60;2.28;;;22.20;58.00;;;;;;5086653;28;20375;-79
2022/04/08 08:15:15;;;;;;;9.05;3.00;;;22.40;57.30;;;;;;5083363;28;20024;-80
2022/04/08 08:17:42;;;;;;;2.92;1.33;;;22.20;57.30;;;;;;5102271;28;20024;-81
2022/04/08 08:20:09;;;;;;;0.43;0.43;;;22.10;57.30;;;;;;5102043;28;20035;-80
2022/04/08 08:22:36;;;;;;;0.82;0.80;;;22.20;57.60;;;;;;5104479;28;20077;-77
2022/04/08 08:25:05;;;;;;;2.35;2.25;;;22.20;57.80;;;;;;5087172;28;20023;-80
2022/04/08 08:27:42;;;;;;;5.68;1.23;;;22.00;58.10;;;;;;5103341;28;20024;-80
2022/04/08 08:30:13;;;;;;;0.22;0.22;;;22.20;57.90;;;;;;5079263;28;20142;-80
2022/04/08 08:32:40;;;;;;;5.95;3.10;;;22.40;57.50;;;;;;5076578;28;20039;-79
2022/04/08 08:35:08;;;;;;;19.98;1.45;;;22.30;57.20;;;;;;5079509;28;20032;-79
2022/04/08 08:37:42;;;;;;;3.03;2.83;;;22.20;57.60;;;;;;5077189;28;20040;-81
2022/04/08 08:40:11;;;;;;;6.88;2.55;;;22.30;59.40;;;;;;5097237;28;20053;-80
2022/04/08 08:42:40;;;;;;;0.55;0.52;;;22.50;57.80;;;;;;5084915;28;20092;-81
2022/04/08 08:45:08;;;;;;;2.28;1.17;;;22.10;59.00;;;;;;5104479;28;20027;-81
2022/04/08 08:47:34;;;;;;;2.30;1.35;;;21.90;58.30;;;;;;5082067;28;20417;-81
2022/04/08 08:50:01;;;;;;;8.93;3.03;;;21.70;58.80;;;;;;5098503;28;20242;-80
2022/04/08 08:52:29;;;;;;;6.50;1.73;;;21.90;58.70;;;;;;5104078;28;20024;-79
2022/04/08 08:54:55;;;;;;;2.85;1.77;;;21.70;59.40;;;;;;5103705;28;20096;-79
2022/04/08 08:57:31;;;;;;;8.95;6.97;;;21.90;59.00;;;;;;5099466;28;20015;-80
2022/04/08 09:00:16;;;;;;;3.13;1.10;;;21.70;59.30;;;;;;5078089;28;20028;-80
2022/04/08 09:02:48;;;;;;;3.42;1.02;;;22.00;58.70;;;;;;5094295;28;20224;-80
2022/04/08 09:05:52;;;;;;;1.15;0.77;;;22.20;57.90;;;;;;5071231;28;20047;-80
2022/04/08 09:08:33;;;;;;;0.38;0.30;;;22.40;56.80;;;;;;5072786;28;20470;-81
2022/04/08 09:11:05;;;;;;;0.00;0.00;;;22.80;56.10;;;;;;5073442;28;20058;-80
2022/04/08 09:13:42;;;;;;;1.85;1.25;;;22.70;55.60;;;;;;5097160;28;20034;-82
2022/04/08 09:16:08;;;;;;;0.00;0.00;;;22.70;54.80;;;;;;5094581;28;20024;-81
2022/04/08 09:18:37;;;;;;;1.40;1.30;;;22.20;55.40;;;;;;5096218;28;20107;-80
2022/04/08 09:21:03;;;;;;;0.22;0.22;;;22.40;55.70;;;;;;5093322;28;20023;-79
2022/04/08 09:23:33;;;;;;;0.30;0.30;;;22.30;55.00;;;;;;5076337;28;20066;-80
2022/04/08 09:26:14;;;;;;;0.22;0.13;;;22.50;55.00;;;;;;5098849;28;20054;-80
2022/04/08 09:29:10;;;;;;;0.60;0.60;;;22.50;55.00;;;;;;5097164;28;20367;-79
2022/04/08 09:31:45;;;;;;;1.77;0.55;;;22.60;54.60;;;;;;5092346;28;20051;-80
2022/04/08 09:34:18;;;;;;;0.25;0.25;;;22.20;55.10;;;;;;5080963;28;20032;-80
2022/04/08 09:36:53;;;;;;;3.00;2.35;;;22.70;54.90;;;;;;5075169;28;20170;-81
2022/04/08 09:39:19;;;;;;;2.85;1.45;;;22.50;54.70;;;;;;5094228;28;20030;-80
2022/04/08 09:41:49;;;;;;;0.57;0.47;;;22.20;55.50;;;;;;5095222;28;20103;-79
2022/04/08 09:44:24;;;;;;;2.55;1.17;;;22.30;55.00;;;;;;5078666;28;20158;-80
2022/04/08 09:46:50;;;;;;;0.17;0.10;;;22.20;55.90;;;;;;5079025;28;20135;-79
2022/04/08 09:49:17;;;;;;;6.75;1.85;;;21.90;56.80;;;;;;5099486;28;20076;-80
2022/04/08 09:51:43;;;;;;;0.10;0.10;;;22.00;56.20;;;;;;5080034;28;20039;-80
2022/04/08 09:54:19;;;;;;;0.00;0.00;;;22.40;55.70;;;;;;5075841;28;20023;-80
2022/04/08 09:56:48;;;;;;;15.63;2.17;;;22.20;55.80;;;;;;5073524;28;20027;-79
2022/04/08 09:59:20;;;;;;;4.00;2.22;;;21.70;55.70;;;;;;5073912;28;20028;-81
2022/04/08 10:01:47;;;;;;;4.82;2.15;;;21.50;56.00;;;;;;5072513;28;20024;-80
2022/04/08 10:04:14;;;;;;;0.00;0.00;;;21.50;56.10;;;;;;5073292;28;20055;-82
2022/04/08 10:06:47;;;;;;;0.08;0.08;;;21.40;56.30;;;;;;5093845;28;20492;-80
2022/04/08 10:09:19;;;;;;;0.47;0.25;;;21.40;56.30;;;;;;5073100;28;20062;-81
2022/04/08 10:12:03;;;;;;;9.18;1.65;;;21.90;55.60;;;;;;5070847;28;20039;-81
2022/04/08 10:15:03;;;;;;;1.80;1.50;;;21.80;53.00;;;;;;5084562;28;20032;-80
2022/04/08 10:17:29;;;;;;;4.18;3.70;;;21.80;53.40;;;;;;5086138;28;20372;-79
2022/04/08 10:20:25;;;;;;;1.75;1.00;;;21.70;53.50;;;;;;5067132;28;20078;-80
2022/04/08 10:22:54;;;;;;;3.65;1.13;;;21.70;53.60;;;;;;5092109;28;20046;-78
2022/04/08 10:25:22;;;;;;;1.17;1.17;;;21.70;53.70;;;;;;5073418;28;20032;-80
2022/04/08 10:27:59;;;;;;;26.48;7.85;;;21.50;52.90;;;;;;5072668;28;20032;-80
2022/04/08 10:30:25;;;;;;;7.53;4.15;;;21.40;53.80;;;;;;5080721;28;20020;-78
2022/04/08 10:33:07;;;;;;;3.97;1.27;;;21.40;54.30;;;;;;5076312;28;20038;-79
2022/04/08 10:35:34;;;;;;;3.58;1.20;;;21.20;54.30;;;;;;5074091;28;20036;-80
2022/04/08 10:38:00;;;;;;;3.75;0.30;;;21.30;53.60;;;;;;5097652;28;20478;-79
2022/04/08 10:40:46;;;;;;;12.82;2.92;;;21.40;53.70;;;;;;5079690;28;20076;-81
2022/04/08 10:43:16;;;;;;;0.77;0.47;;;21.40;53.50;;;;;;5094989;28;20431;-80
2022/04/08 10:45:53;;;;;;;0.35;0.35;;;21.60;53.10;;;;;;5075089;28;20059;-81
2022/04/08 10:48:19;;;;;;;1.35;0.82;;;21.60;54.80;;;;;;5077896;28;20566;-81
2022/04/08 10:50:45;;;;;;;1.08;1.08;;;21.50;52.30;;;;;;5095540;28;20030;-80
2022/04/08 10:53:21;;;;;;;0.00;0.00;;;21.70;53.30;;;;;;5093116;28;20036;-80
2022/04/08 10:56:04;;;;;;;4.88;1.55;;;21.80;77.00;;;;;;5093853;28;20028;-81
2022/04/08 10:58:45;;;;;;;0.00;0.00;;;20.80;54.90;;;;;;5091048;28;20931;-80
2022/04/08 11:01:18;;;;;;;3.30;2.63;;;19.80;60.60;;;;;;5078301;28;20023;-81
2022/04/08 11:04:06;;;;;;;2.55;0.75;;;20.10;55.40;;;;;;5097111;28;20509;-81
2022/04/08 11:06:36;;;;;;;0.00;0.00;;;20.00;54.90;;;;;;5097809;28;20034;-80
2022/04/08 11:09:10;;;;;;;1.52;1.23;;;20.20;55.50;;;;;;5096120;28;20402;-81
2022/04/08 11:11:55;;;;;;;0.00;0.00;;;20.30;54.40;;;;;;5099373;28;20060;-81
2022/04/08 11:14:21;;;;;;;0.10;0.10;;;20.50;57.00;;;;;;5097119;28;20061;-81
2022/04/08 11:16:50;;;;;;;0.43;0.43;;;20.70;53.90;;;;;;5093672;28;20035;-81
2022/04/08 11:19:16;;;;;;;6.38;1.17;;;20.70;52.00;;;;;;5102616;28;20066;-81
2022/04/08 11:21:42;;;;;;;4.93;0.90;;;20.80;52.50;;;;;;5097015;28;20172;-79
2022/04/08 11:24:10;;;;;;;19.52;2.38;;;20.80;51.90;;;;;;5078116;28;20028;-81
2022/04/08 11:26:53;;;;;;;3.92;0.25;;;20.90;51.80;;;;;;5098587;28;20379;-80
2022/04/08 11:29:27;;;;;;;0.00;0.00;;;20.90;50.30;;;;;;5096059;28;20389;-81
2022/04/08 11:32:09;;;;;;;0.00;0.00;;;20.70;50.10;;;;;;5082315;28;20252;-81
2022/04/08 11:34:36;;;;;;;0.00;0.00;;;20.90;52.60;;;;;;5095842;28;20023;-81
2022/04/08 11:37:02;;;;;;;0.00;0.00;;;20.90;50.00;;;;;;5099613;28;20031;-81
2022/04/08 11:39:30;;;;;;;1.17;1.17;;;21.00;50.70;;;;;;5075686;28;20036;-81
2022/04/08 11:41:58;;;;;;;0.00;0.00;;;20.80;52.30;;;;;;5095597;28;20027;-80
2022/04/08 11:44:26;;;;;;;0.00;0.00;;;20.90;52.00;;;;;;5112340;28;20082;-80
2022/04/08 11:47:03;;;;;;;1.10;0.35;;;20.90;50.60;;;;;;5086653;28;20028;-81
2022/04/08 11:49:36;;;;;;;0.52;0.40;;;20.80;51.30;;;;;;5078539;28;20055;-81
2022/04/08 11:52:07;;;;;;;0.68;0.68;;;20.90;51.40;;;;;;5093250;28;20081;-81
2022/04/08 11:54:37;;;;;;;3.17;2.97;;;21.00;50.10;;;;;;5078502;28;20055;-80
2022/04/08 11:57:05;;;;;;;1.20;1.10;;;20.90;50.00;;;;;;5098126;28;20024;-81
2022/04/08 11:59:32;;;;;;;4.82;2.03;;;21.00;51.00;;;;;;5095859;28;20049;-81
2022/04/08 12:02:00;;;;;;;3.17;1.80;;;21.00;50.50;;;;;;5100879;28;20024;-81
2022/04/08 12:04:26;;;;;;;0.28;0.28;;;20.90;50.50;;;;;;5097611;28;20055;-80
2022/04/08 12:06:55;;;;;;;1.48;0.60;;;20.90;50.30;;;;;;5100067;28;20042;-80
2022/04/08 12:09:22;;;;;;;0.55;0.45;;;20.80;51.30;;;;;;5093068;28;20789;-80
2022/04/08 12:11:56;;;;;;;0.25;0.25;;;20.70;52.70;;;;;;5081440;28;20032;-80
2022/04/08 12:14:23;;;;;;;0.00;0.00;;;20.70;52.40;;;;;;5096822;28;21313;-81
2022/04/08 12:16:51;;;;;;;5.03;2.35;;;20.80;53.30;;;;;;5078664;28;20036;-80
2022/04/08 12:19:18;;;;;;;3.50;2.20;;;20.70;51.40;;;;;;5075804;28;20662;-79
2022/04/08 12:21:48;;;;;;;0.52;0.52;;;20.50;52.00;;;;;;5097282;28;20430;-80
2022/04/08 12:24:17;;;;;;;0.55;0.55;;;20.50;52.10;;;;;;5078684;28;20027;-80
2022/04/08 12:26:44;;;;;;;2.47;2.33;;;20.60;52.30;;;;;;5096724;28;20115;-79
2022/04/08 12:29:14;;;;;;;0.68;0.68;;;20.60;52.90;;;;;;5095630;28;20028;-80
2022/04/08 12:31:48;;;;;;;6.05;5.75;;;20.60;53.60;;;;;;5098923;28;20051;-80
2022/04/08 12:34:15;;;;;;;5.82;1.85;;;20.60;53.50;;;;;;5097719;28;20089;-79
2022/04/08 12:36:46;;;;;;;0.40;0.13;;;20.40;55.50;;;;;;5090622;28;20024;-82
2022/04/08 12:39:12;;;;;;;0.90;0.85;;;20.40;57.10;;;;;;5079110;28;20028;-80
2022/04/08 12:41:40;;;;;;;0.00;0.00;;;20.40;56.80;;;;;;5097199;28;20151;-80
2022/04/08 12:44:07;;;;;;;3.67;1.45;;;20.40;58.30;;;;;;5096789;28;20070;-80
2022/04/08 12:46:33;;;;;;;1.08;0.50;;;20.40;57.30;;;;;;5092570;28;20118;-80
2022/04/08 12:48:59;;;;;;;0.20;0.20;;;20.50;57.80;;;;;;5105045;28;20036;-80
2022/04/08 12:51:27;;;;;;;0.00;0.00;;;20.20;58.10;;;;;;5102924;28;20198;-80
2022/04/08 12:53:53;;;;;;;13.57;10.98;;;20.20;59.00;;;;;;5103128;28;20043;-79
2022/04/08 12:56:19;;;;;;;0.00;0.00;;;20.30;59.90;;;;;;5097938;28;20069;-81
2022/04/08 12:58:46;;;;;;;0.65;0.65;;;20.40;59.70;;;;;;5083138;28;20494;-78
2022/04/08 13:01:13;;;;;;;0.05;0.05;;;20.40;59.80;;;;;;5100961;28;20091;-80